createdAt,value
2023-08-25T00:00:39.160Z,4.43
2023-08-25T00:03:08.106Z,4.70
2023-08-25T00:05:40.468Z,7.17
2023-08-25T00:08:08.662Z,4.20
2023-08-25T00:10:37.241Z,9.70
2023-08-25T00:13:04.467Z,7.33
2023-08-25T00:15:31.504Z,6.03
2023-08-25T00:18:00.475Z,5.50
2023-08-25T00:20:29.307Z,3.93
2023-08-25T00:22:56.575Z,3.50
2023-08-25T00:25:23.658Z,3.90
2023-08-25T00:27:50.969Z,5.40
2023-08-25T00:30:18.604Z,5.10
2023-08-25T00:32:45.768Z,4.00
2023-08-25T00:35:12.945Z,4.10
2023-08-25T00:37:40.016Z,4.20
2023-08-25T00:40:08.173Z,4.93
2023-08-25T00:42:38.025Z,2.40
2023-08-25T00:45:05.888Z,5.83
2023-08-25T00:47:33.109Z,5.90
2023-08-25T00:50:00.479Z,6.23
2023-08-25T00:52:30.403Z,4.83
2023-08-25T00:55:00.199Z,12.77
2023-08-25T00:57:27.236Z,3.90
2023-08-25T00:59:55.566Z,4.50
2023-08-25T01:02:22.483Z,6.03
2023-08-25T01:04:50.440Z,5.90
2023-08-25T01:07:17.631Z,4.87
2023-08-25T01:09:47.085Z,4.10
2023-08-25T01:12:49.490Z,3.90
2023-08-25T01:15:29.362Z,6.20
2023-08-25T01:18:17.567Z,7.63
2023-08-25T01:20:48.130Z,3.07
2023-08-25T01:23:34.065Z,4.47
2023-08-25T01:26:03.987Z,3.67
2023-08-25T01:28:31.628Z,6.80
2023-08-25T01:31:01.043Z,2.87
2023-08-25T01:33:30.137Z,3.90
2023-08-25T01:36:35.256Z,6.57
2023-08-25T01:39:16.729Z,3.00
2023-08-25T01:42:00.634Z,3.30
2023-08-25T01:44:30.617Z,2.50
2023-08-25T01:47:05.721Z,4.20
2023-08-25T01:49:33.748Z,3.30
2023-08-25T01:52:01.415Z,3.17
2023-08-25T01:54:28.613Z,4.63
2023-08-25T01:56:56.179Z,4.80
2023-08-25T01:59:23.794Z,4.53
2023-08-25T02:01:53.002Z,5.20
2023-08-25T02:04:21.321Z,3.33
2023-08-25T02:06:50.308Z,5.57
2023-08-25T02:09:17.505Z,7.33
2023-08-25T02:11:46.523Z,5.90
2023-08-25T02:14:15.080Z,4.20
2023-08-25T02:16:42.811Z,5.90
2023-08-25T02:19:10.213Z,7.23
2023-08-25T02:21:37.912Z,8.50
2023-08-25T02:24:06.057Z,5.03
2023-08-25T02:26:33.505Z,6.30
2023-08-25T02:29:00.831Z,3.43
2023-08-25T02:31:28.344Z,6.43
2023-08-25T02:33:55.710Z,3.93
2023-08-25T02:36:22.702Z,4.00
2023-08-25T02:38:49.631Z,3.93
2023-08-25T02:41:18.867Z,4.87
2023-08-25T02:43:47.233Z,7.90
2023-08-25T02:46:14.395Z,4.40
2023-08-25T02:48:43.143Z,5.97
2023-08-25T02:51:10.091Z,5.53
2023-08-25T02:53:37.088Z,5.67
2023-08-25T02:56:04.805Z,6.50
2023-08-25T02:58:31.787Z,8.13
2023-08-25T03:00:58.853Z,8.20
2023-08-25T03:03:26.509Z,8.90
2023-08-25T03:05:53.953Z,8.23
2023-08-25T03:08:21.722Z,6.20
2023-08-25T03:10:50.341Z,5.17
2023-08-25T03:13:26.812Z,7.53
2023-08-25T03:15:55.158Z,5.90
2023-08-25T03:18:22.307Z,5.73
2023-08-25T03:20:56.105Z,7.30
2023-08-25T03:23:23.346Z,5.53
2023-08-25T03:25:50.492Z,7.97
2023-08-25T03:28:17.748Z,8.80
2023-08-25T03:30:44.997Z,6.70
2023-08-25T03:33:13.398Z,5.90
2023-08-25T03:35:43.931Z,4.97
2023-08-25T03:38:10.916Z,5.43
2023-08-25T03:40:37.821Z,5.47
2023-08-25T03:43:05.093Z,4.90
2023-08-25T03:45:33.190Z,6.83
2023-08-25T03:48:00.541Z,4.93
2023-08-25T03:50:29.320Z,10.43
2023-08-25T03:52:56.333Z,6.43
2023-08-25T03:55:24.934Z,5.67
2023-08-25T03:57:53.808Z,6.63
2023-08-25T04:00:21.112Z,7.47
2023-08-25T04:02:48.408Z,5.97
2023-08-25T04:05:18.433Z,7.50
2023-08-25T04:07:45.388Z,9.77
2023-08-25T04:10:12.283Z,11.50
2023-08-25T04:12:39.898Z,10.43
2023-08-25T04:15:07.641Z,8.23
2023-08-25T04:17:34.650Z,13.47
2023-08-25T04:20:02.648Z,9.50
2023-08-25T04:22:29.613Z,8.53
2023-08-25T04:24:57.271Z,9.20
2023-08-25T04:27:26.984Z,9.83
2023-08-25T04:29:54.033Z,11.23
2023-08-25T04:32:23.042Z,12.13
2023-08-25T04:34:49.994Z,10.00
2023-08-25T04:37:18.499Z,11.90
2023-08-25T04:39:47.291Z,9.40
2023-08-25T04:42:14.275Z,12.20
2023-08-25T04:44:42.257Z,9.33
2023-08-25T04:47:09.547Z,11.07
2023-08-25T04:49:36.527Z,15.77
2023-08-25T04:52:03.633Z,10.33
2023-08-25T04:54:30.656Z,13.00
2023-08-25T04:56:59.145Z,15.73
2023-08-25T04:59:26.271Z,11.87
2023-08-25T05:01:55.571Z,13.73
2023-08-25T05:04:23.019Z,17.63
2023-08-25T05:06:50.185Z,18.53
2023-08-25T05:09:19.180Z,14.70
2023-08-25T05:11:46.552Z,16.43
2023-08-25T05:14:15.640Z,20.30
2023-08-25T05:16:42.686Z,14.23
2023-08-25T05:19:09.830Z,16.43
2023-08-25T05:21:36.793Z,15.93
2023-08-25T05:24:25.732Z,15.17
2023-08-25T05:26:55.241Z,14.50
2023-08-25T05:29:26.400Z,13.80
2023-08-25T05:31:53.736Z,17.30
2023-08-25T05:34:21.650Z,14.43
2023-08-25T05:36:48.644Z,15.70
2023-08-25T05:39:18.114Z,13.87
2023-08-25T05:41:45.799Z,13.10
2023-08-25T05:44:13.582Z,14.10
2023-08-25T05:46:41.329Z,16.80
2023-08-25T05:49:09.116Z,13.03
2023-08-25T05:51:36.591Z,13.00
2023-08-25T05:54:03.759Z,14.07
2023-08-25T05:56:30.756Z,16.40
2023-08-25T05:59:00.996Z,20.37
2023-08-25T06:01:33.117Z,14.60
2023-08-25T06:04:01.133Z,12.93
2023-08-25T06:06:28.389Z,12.37
2023-08-25T06:08:56.486Z,17.03
2023-08-25T06:11:23.654Z,10.20
2023-08-25T06:13:50.902Z,12.20
2023-08-25T06:16:20.469Z,10.93
2023-08-25T06:18:48.441Z,10.63
2023-08-25T06:21:17.280Z,10.83
2023-08-25T06:23:44.966Z,8.73
2023-08-25T06:26:11.995Z,10.30
2023-08-25T06:28:39.513Z,7.90
2023-08-25T06:31:09.899Z,7.93
2023-08-25T06:33:37.410Z,9.57
2023-08-25T06:36:04.915Z,6.40
2023-08-25T06:38:39.274Z,9.07
2023-08-25T06:41:13.390Z,6.73
2023-08-25T06:43:40.350Z,8.40
2023-08-25T06:46:08.850Z,5.30
2023-08-25T06:48:38.453Z,7.03
2023-08-25T06:51:05.493Z,5.47
2023-08-25T06:53:32.449Z,5.20
2023-08-25T06:56:01.957Z,6.97
2023-08-25T06:58:30.761Z,8.83
2023-08-25T07:00:58.688Z,10.10
2023-08-25T07:03:27.398Z,9.97
2023-08-25T07:05:59.322Z,7.37
2023-08-25T07:08:27.910Z,4.93
2023-08-25T07:10:54.880Z,5.50
2023-08-25T07:13:21.935Z,6.30
2023-08-25T07:15:49.197Z,5.50
2023-08-25T07:18:18.325Z,4.33
2023-08-25T07:20:45.444Z,4.27
2023-08-25T07:23:13.982Z,7.50
2023-08-25T07:25:41.265Z,6.30
2023-08-25T07:28:08.607Z,7.17
2023-08-25T07:30:41.081Z,5.23
2023-08-25T07:33:08.114Z,6.00
2023-08-25T07:35:35.882Z,11.57
2023-08-25T07:38:05.829Z,11.67
2023-08-25T07:40:34.728Z,10.07
2023-08-25T07:43:02.678Z,7.20
2023-08-25T07:45:31.944Z,5.70
2023-08-25T07:48:01.414Z,4.70
2023-08-25T07:50:33.003Z,5.10
2023-08-25T07:53:02.010Z,6.80
2023-08-25T07:55:30.073Z,5.03
2023-08-25T07:57:58.988Z,4.17
2023-08-25T08:00:26.451Z,6.17
2023-08-25T08:02:53.397Z,4.93
2023-08-25T08:05:20.679Z,8.70
2023-08-25T08:07:48.870Z,4.30
2023-08-25T08:10:18.205Z,8.10
2023-08-25T08:12:48.292Z,6.93
2023-08-25T08:15:16.367Z,10.10
2023-08-25T08:17:44.731Z,7.40
2023-08-25T08:20:14.488Z,7.60
2023-08-25T08:22:46.415Z,3.60
2023-08-25T08:25:13.884Z,8.20
2023-08-25T08:27:42.657Z,6.40
2023-08-25T08:30:11.710Z,4.97
2023-08-25T08:32:40.439Z,4.10
2023-08-25T08:35:08.519Z,4.50
2023-08-25T08:37:37.253Z,4.10
2023-08-25T08:40:06.920Z,6.23
2023-08-25T08:42:36.834Z,6.50
2023-08-25T08:45:08.606Z,7.17
2023-08-25T08:47:36.279Z,7.37
2023-08-25T08:50:05.860Z,6.43
2023-08-25T08:52:33.822Z,5.47
2023-08-25T08:55:01.588Z,5.40
2023-08-25T08:57:30.169Z,4.80
2023-08-25T09:00:00.685Z,5.43
2023-08-25T09:02:29.644Z,4.57
2023-08-25T09:05:01.903Z,4.50
2023-08-25T09:07:31.672Z,5.00
2023-08-25T09:10:02.319Z,3.10
2023-08-25T09:12:29.946Z,3.77
2023-08-25T09:14:57.709Z,5.40
2023-08-25T09:17:25.045Z,6.10
2023-08-25T09:19:52.221Z,7.77
2023-08-25T09:22:20.090Z,3.70
2023-08-25T09:24:47.109Z,6.47
2023-08-25T09:27:27.772Z,4.07
2023-08-25T09:30:03.090Z,5.43
2023-08-25T09:32:30.456Z,5.20
2023-08-25T09:35:11.660Z,8.37
2023-08-25T09:37:45.810Z,3.80
2023-08-25T09:40:16.404Z,4.63
2023-08-25T09:42:43.852Z,4.07
2023-08-25T09:45:13.301Z,4.97
2023-08-25T09:47:41.397Z,7.00
2023-08-25T09:50:14.430Z,10.23
2023-08-25T09:52:46.298Z,2.90
2023-08-25T09:55:15.925Z,4.30
2023-08-25T09:57:45.066Z,7.27
2023-08-25T10:00:15.780Z,4.40
2023-08-25T10:02:44.848Z,3.63
2023-08-25T10:05:12.592Z,7.87
2023-08-25T10:07:42.330Z,2.70
2023-08-25T10:10:10.574Z,4.20
2023-08-25T10:12:39.152Z,3.83
2023-08-25T10:15:11.460Z,5.23
2023-08-25T10:17:39.547Z,4.57
2023-08-25T10:20:10.355Z,4.50
2023-08-25T10:22:42.216Z,3.47
2023-08-25T10:25:10.831Z,3.13
2023-08-25T10:27:41.473Z,7.30
2023-08-25T10:30:09.419Z,3.57
2023-08-25T10:32:50.153Z,4.20
2023-08-25T10:35:39.591Z,3.83
2023-08-25T10:38:20.926Z,3.80
2023-08-25T10:40:55.270Z,3.37
2023-08-25T10:43:33.789Z,3.73
2023-08-25T10:46:08.759Z,5.87
2023-08-25T10:48:37.997Z,6.00
2023-08-25T10:51:09.204Z,4.27
2023-08-25T10:53:50.541Z,5.10
2023-08-25T10:56:20.337Z,3.37
2023-08-25T10:59:10.979Z,5.40
2023-08-25T11:01:39.098Z,3.70
2023-08-25T11:04:25.514Z,9.60
2023-08-25T11:06:56.930Z,8.67
2023-08-25T11:09:27.029Z,6.10
2023-08-25T11:11:59.277Z,13.70
2023-08-25T11:14:33.710Z,7.80
2023-08-25T11:17:04.998Z,4.00
2023-08-25T11:19:33.841Z,8.10
2023-08-25T11:22:04.326Z,6.53
2023-08-25T11:24:33.252Z,5.87
2023-08-25T11:27:13.644Z,3.60
2023-08-25T11:29:40.604Z,8.30
2023-08-25T11:32:12.699Z,6.13
2023-08-25T11:34:39.931Z,5.80
2023-08-25T11:37:09.797Z,6.40
2023-08-25T11:39:43.876Z,7.30
2023-08-25T11:42:10.972Z,8.30
2023-08-25T11:44:42.347Z,3.20
2023-08-25T11:47:10.321Z,4.67
2023-08-25T11:49:38.035Z,5.10
2023-08-25T11:52:08.145Z,6.47
2023-08-25T11:54:49.323Z,4.67
2023-08-25T11:57:16.538Z,5.97
2023-08-25T11:59:47.806Z,4.07
2023-08-25T12:02:20.443Z,4.10
2023-08-25T12:05:00.919Z,3.70
2023-08-25T12:07:32.485Z,5.63
2023-08-25T12:10:05.569Z,4.90
2023-08-25T12:12:35.888Z,4.33
2023-08-25T12:15:02.975Z,7.23
2023-08-25T12:17:31.031Z,4.03
2023-08-25T12:19:58.663Z,7.27
2023-08-25T12:22:25.917Z,5.00
2023-08-25T12:24:52.929Z,5.23
2023-08-25T12:27:21.317Z,4.00
2023-08-25T12:29:49.177Z,3.17
2023-08-25T12:32:16.950Z,5.10
2023-08-25T12:34:45.920Z,5.43
2023-08-25T12:37:13.811Z,3.90
2023-08-25T12:39:41.066Z,5.80
2023-08-25T12:42:09.021Z,5.10
2023-08-25T12:44:38.518Z,4.30
2023-08-25T12:47:05.866Z,4.47
2023-08-25T12:49:32.957Z,3.73
2023-08-25T12:52:01.098Z,5.17
2023-08-25T12:54:30.934Z,4.03
2023-08-25T12:56:57.890Z,4.80
2023-08-25T12:59:24.931Z,3.67
2023-08-25T13:01:53.508Z,7.80
2023-08-25T13:04:20.677Z,4.07
2023-08-25T13:06:47.649Z,4.83
2023-08-25T13:09:14.670Z,5.53
2023-08-25T13:11:41.718Z,5.13
2023-08-25T13:14:09.642Z,3.70
2023-08-25T13:16:36.921Z,5.80
2023-08-25T13:19:04.387Z,4.17
2023-08-25T13:21:31.911Z,4.60
2023-08-25T13:24:08.774Z,4.00
2023-08-25T13:26:37.207Z,4.83
2023-08-25T13:29:05.425Z,4.07
2023-08-25T13:31:34.626Z,3.90
2023-08-25T13:34:03.075Z,5.60
2023-08-25T13:36:30.672Z,4.37
2023-08-25T13:39:00.529Z,4.10
2023-08-25T13:41:29.262Z,4.30
2023-08-25T13:43:56.761Z,5.60
2023-08-25T13:46:23.885Z,4.50
2023-08-25T13:48:51.197Z,4.77
2023-08-25T13:51:18.998Z,5.47
2023-08-25T13:53:46.529Z,4.73
2023-08-25T13:56:14.039Z,4.03
2023-08-25T13:58:42.084Z,4.80
2023-08-25T14:01:10.112Z,8.37
2023-08-25T14:03:38.068Z,6.73
2023-08-25T14:06:09.840Z,4.93
2023-08-25T14:08:38.691Z,5.90
2023-08-25T14:11:06.725Z,4.73
2023-08-25T14:13:33.982Z,5.53
2023-08-25T14:16:01.074Z,4.23
2023-08-25T14:18:30.856Z,5.13
2023-08-25T14:20:59.242Z,5.47
2023-08-25T14:23:26.676Z,4.60
2023-08-25T14:25:53.644Z,5.03
2023-08-25T14:28:20.809Z,5.70
2023-08-25T14:30:47.910Z,4.40
2023-08-25T14:33:14.889Z,4.17
2023-08-25T14:35:42.072Z,4.43
2023-08-25T14:38:09.090Z,6.93
2023-08-25T14:40:36.294Z,4.40
2023-08-25T14:43:03.572Z,6.07
2023-08-25T14:45:36.640Z,4.80
2023-08-25T14:48:04.276Z,4.27
2023-08-25T14:50:33.556Z,4.10
2023-08-25T14:53:01.110Z,4.57
2023-08-25T14:55:28.297Z,4.40
2023-08-25T14:57:55.873Z,4.93
2023-08-25T15:00:23.226Z,4.90
2023-08-25T15:02:50.358Z,4.87
2023-08-25T15:05:17.408Z,4.13
2023-08-25T15:07:44.987Z,5.90
2023-08-25T15:10:12.687Z,4.33
2023-08-25T15:12:39.745Z,3.97
2023-08-25T15:15:07.448Z,5.67
2023-08-25T15:17:34.962Z,4.13
2023-08-25T15:20:02.888Z,4.90
2023-08-25T15:22:30.298Z,5.33
2023-08-25T15:24:58.145Z,6.30
2023-08-25T15:27:26.450Z,4.90
2023-08-25T15:29:55.410Z,4.53
2023-08-25T15:32:24.141Z,6.50
2023-08-25T15:34:53.660Z,7.33
2023-08-25T15:37:20.761Z,5.47
2023-08-25T15:39:48.133Z,7.60
2023-08-25T15:42:15.023Z,4.53
2023-08-25T15:44:43.235Z,3.97
2023-08-25T15:47:10.201Z,4.60
2023-08-25T15:49:38.297Z,4.20
2023-08-25T15:52:06.058Z,5.77
2023-08-25T15:54:33.097Z,4.50
2023-08-25T15:57:00.912Z,4.83
2023-08-25T15:59:29.331Z,4.17
2023-08-25T16:01:56.281Z,4.30
2023-08-25T16:04:25.169Z,3.90
2023-08-25T16:06:52.838Z,6.47
2023-08-25T16:09:20.767Z,4.73
2023-08-25T16:11:47.916Z,5.63
2023-08-25T16:14:15.016Z,5.40
2023-08-25T16:16:42.086Z,9.40
2023-08-25T16:19:09.444Z,4.60
2023-08-25T16:21:37.312Z,7.43
2023-08-25T16:24:04.785Z,4.80
2023-08-25T16:26:33.916Z,4.33
2023-08-25T16:29:01.255Z,5.60
2023-08-25T16:31:28.503Z,5.20
2023-08-25T16:33:56.014Z,5.83
2023-08-25T16:36:23.268Z,5.43
2023-08-25T16:38:50.302Z,4.67
2023-08-25T16:41:17.561Z,5.27
2023-08-25T16:43:44.595Z,5.83
2023-08-25T16:46:12.249Z,5.40
2023-08-25T16:48:39.264Z,7.23
2023-08-25T16:51:07.104Z,6.07
2023-08-25T16:53:35.653Z,8.90
2023-08-25T16:56:03.125Z,5.30
2023-08-25T16:58:30.233Z,5.07
2023-08-25T17:00:59.618Z,4.93
2023-08-25T17:03:26.930Z,5.40
2023-08-25T17:06:05.052Z,6.80
2023-08-25T17:08:32.717Z,5.13
2023-08-25T17:11:02.940Z,7.70
2023-08-25T17:13:30.252Z,7.33
2023-08-25T17:15:57.938Z,5.43
2023-08-25T17:18:25.679Z,7.10
2023-08-25T17:20:57.989Z,5.63
2023-08-25T17:23:25.800Z,5.87
2023-08-25T17:25:54.367Z,6.50
2023-08-25T17:28:22.843Z,8.70
2023-08-25T17:30:51.887Z,5.60
2023-08-25T17:33:32.041Z,5.70
2023-08-25T17:36:10.766Z,7.97
2023-08-25T17:38:39.706Z,5.60
2023-08-25T17:41:08.849Z,8.23
2023-08-25T17:43:36.397Z,6.17
2023-08-25T17:46:07.942Z,5.40
2023-08-25T17:48:36.017Z,6.23
2023-08-25T17:51:03.723Z,9.77
2023-08-25T17:53:30.941Z,6.20
2023-08-25T17:56:00.379Z,6.87
2023-08-25T17:58:27.743Z,6.00
2023-08-25T18:01:01.915Z,7.50
2023-08-25T18:03:29.219Z,6.23
2023-08-25T18:05:56.489Z,9.20
2023-08-25T18:08:24.553Z,7.23
2023-08-25T18:10:52.302Z,9.40
2023-08-25T18:13:19.417Z,6.23
2023-08-25T18:15:55.032Z,6.00
2023-08-25T18:18:23.364Z,5.77
2023-08-25T18:21:02.891Z,7.63
2023-08-25T18:23:31.776Z,7.10
2023-08-25T18:25:59.956Z,7.07
2023-08-25T18:28:28.909Z,6.50
2023-08-25T18:31:02.264Z,6.37
2023-08-25T18:33:30.912Z,6.23
2023-08-25T18:35:59.509Z,7.50
2023-08-25T18:38:26.725Z,8.43
2023-08-25T18:40:53.833Z,8.83
2023-08-25T18:43:21.483Z,7.53
2023-08-25T18:45:55.149Z,7.70
2023-08-25T18:48:22.521Z,7.50
2023-08-25T18:50:49.889Z,7.97
2023-08-25T18:53:17.172Z,6.70
2023-08-25T18:55:48.353Z,6.80
2023-08-25T18:58:16.627Z,7.43
2023-08-25T19:00:48.178Z,6.90
2023-08-25T19:03:22.538Z,6.43
2023-08-25T19:05:51.774Z,7.97
2023-08-25T19:08:19.533Z,8.43
2023-08-25T19:10:48.001Z,9.20
2023-08-25T19:13:16.625Z,8.37
2023-08-25T19:15:43.850Z,10.97
2023-08-25T19:18:12.193Z,7.97
2023-08-25T19:20:40.013Z,8.63
2023-08-25T19:23:07.637Z,8.23
2023-08-25T19:25:34.541Z,7.47
2023-08-25T19:28:01.771Z,7.00
2023-08-25T19:30:29.139Z,7.40
2023-08-25T19:32:57.361Z,6.77
2023-08-25T19:35:26.160Z,8.17
2023-08-25T19:37:53.549Z,7.27
2023-08-25T19:40:20.646Z,7.03
2023-08-25T19:42:49.029Z,8.13
2023-08-25T19:45:17.170Z,6.90
2023-08-25T19:47:44.428Z,7.40
2023-08-25T19:50:12.516Z,7.33
2023-08-25T19:52:40.089Z,6.57
2023-08-25T19:55:08.790Z,7.27
2023-08-25T19:57:36.607Z,9.67
2023-08-25T20:00:03.931Z,6.77
2023-08-25T20:02:31.029Z,6.40
2023-08-25T20:04:58.244Z,6.33
2023-08-25T20:07:25.371Z,6.47
2023-08-25T20:09:53.934Z,7.17
2023-08-25T20:12:20.892Z,6.63
2023-08-25T20:14:48.842Z,7.27
2023-08-25T20:17:16.145Z,7.37
2023-08-25T20:19:44.433Z,8.70
2023-08-25T20:22:11.671Z,6.50
2023-08-25T20:24:39.606Z,7.17
2023-08-25T20:27:06.931Z,8.97
2023-08-25T20:29:35.086Z,8.53
2023-08-25T20:32:02.282Z,6.93
2023-08-25T20:34:29.379Z,8.03
2023-08-25T20:36:57.313Z,6.40
2023-08-25T20:39:26.612Z,7.70
2023-08-25T20:41:55.802Z,6.83
2023-08-25T20:44:22.785Z,6.27
2023-08-25T20:46:49.794Z,8.13
2023-08-25T20:49:17.886Z,6.50
2023-08-25T20:51:46.233Z,6.50
2023-08-25T20:54:13.626Z,8.57
2023-08-25T20:56:40.645Z,7.93
2023-08-25T20:59:07.612Z,7.90
2023-08-25T21:01:34.951Z,8.53
2023-08-25T21:04:02.631Z,8.23
2023-08-25T21:06:31.776Z,10.93
2023-08-25T21:08:58.762Z,7.50
2023-08-25T21:11:27.157Z,7.30
2023-08-25T21:13:55.680Z,8.73
2023-08-25T21:16:26.051Z,8.13
2023-08-25T21:18:55.806Z,7.30
2023-08-25T21:21:22.915Z,8.93
2023-08-25T21:23:50.951Z,8.60
2023-08-25T21:26:18.007Z,7.53
2023-08-25T21:28:45.800Z,13.33
2023-08-25T21:31:12.822Z,7.90
2023-08-25T21:33:39.899Z,8.63
2023-08-25T21:36:07.423Z,8.40
2023-08-25T21:38:37.168Z,8.97
2023-08-25T21:41:04.485Z,8.00
2023-08-25T21:43:32.481Z,10.43
2023-08-25T21:45:59.660Z,7.97
2023-08-25T21:48:26.695Z,8.37
2023-08-25T21:50:53.733Z,7.80
2023-08-25T21:53:20.726Z,7.60
2023-08-25T21:55:50.448Z,7.97
2023-08-25T21:58:17.947Z,9.20
2023-08-25T22:00:45.112Z,7.70
2023-08-25T22:03:12.353Z,7.37
2023-08-25T22:05:41.069Z,6.23
2023-08-25T22:08:08.657Z,6.50
2023-08-25T22:10:37.153Z,8.03
2023-08-25T22:13:07.724Z,7.07
2023-08-25T22:15:35.075Z,7.50
2023-08-25T22:18:02.828Z,8.10
2023-08-25T22:20:30.907Z,6.90
2023-08-25T22:22:58.878Z,7.17
2023-08-25T22:25:26.155Z,9.33
2023-08-25T22:27:53.111Z,6.90
2023-08-25T22:30:20.132Z,8.97
2023-08-25T22:35:18.710Z,8.85
2023-08-25T22:37:45.803Z,8.87
2023-08-25T22:40:15.075Z,8.30
2023-08-25T22:42:43.680Z,8.60
2023-08-25T22:45:11.132Z,8.63
2023-08-25T22:47:38.168Z,9.27
2023-08-25T22:50:06.652Z,8.93
2023-08-25T22:52:34.872Z,7.90
2023-08-25T22:55:02.380Z,8.23
2023-08-25T22:57:29.405Z,8.97
2023-08-25T22:59:56.737Z,7.50
2023-08-25T23:02:23.870Z,9.30
2023-08-25T23:04:51.235Z,8.47
2023-08-25T23:07:19.025Z,9.67
2023-08-25T23:09:45.903Z,11.40
2023-08-25T23:12:13.881Z,8.57
2023-08-25T23:14:41.656Z,8.00
2023-08-25T23:17:08.685Z,9.13
2023-08-25T23:19:35.709Z,9.37
2023-08-25T23:22:03.323Z,8.80
2023-08-25T23:24:44.448Z,8.93
2023-08-25T23:27:15.181Z,8.23
2023-08-25T23:29:42.508Z,9.83
2023-08-25T23:32:09.625Z,9.03
2023-08-25T23:34:37.505Z,9.57
2023-08-25T23:37:05.078Z,10.73
2023-08-25T23:39:32.889Z,9.40
2023-08-25T23:41:59.936Z,18.30
2023-08-25T23:44:32.373Z,9.63
2023-08-25T23:47:00.547Z,10.07
2023-08-25T23:49:27.894Z,9.37
2023-08-25T23:51:55.912Z,8.73
2023-08-25T23:54:22.977Z,9.30
2023-08-25T23:56:50.117Z,10.40
2023-08-25T23:59:18.606Z,9.40
